Greenwald, MN (56335)

2:47 PM CST on February 06, 2016 (GMT -0600)
Sauk Centre | | Change Station
CLOSE
Current Station
Airport
Location: Sauk Centre,
Elevation: 1240 ft
Nearby Weather Stations

Elev 1240 ft 45.71 °N, 94.93 °W | Updated 13 minutes ago

Overcast
Overcast
36 °F
Feels Like 27 °F
N
17
Wind Variable Wind from SSW
Gusts 24 mph

Today
High -- | Low -- °F
--% Chance of Precip.
Yesterday
High -- | Low -- °F
Precip. -- in
Pressure 29.80 in
Visibility 10.0 miles
Clouds Clear
Windchill 27 °F
Dew Point 27 °F
Humidity 69%
Rainfall 0.00 in
Snow Depth Not available.
7:34 AM 5:32 PM
Waning Crescent, 4% visible
METAR KD39 062034Z AUTO 20015G21KT 10SM CLR 03/M03 A2980 RMK AO2 T00251027
Pressure 29.80 in
Visibility 10.0 miles
Clouds Clear
Windchill 27 °F
Dew Point 27 °F
Humidity 69%
Rainfall 0.00 in
Snow Depth Not available.
7:34 AM 5:32 PM
Waning Crescent, 4% visible
METAR KD39 062034Z AUTO 20015G21KT 10SM CLR 03/M03 A2980 RMK AO2 T00251027

10-Day Weather Forecast

Almanac

Astronomy

Feb. 06, 2016 Rise Set
Actual Time
Civil Twilight
Nautical Twilight
Astronomical Twilight
Moon
Length of Visible Light
Length of Day
Tomorrow will be .
, % of the Moon is Illuminated

Today's Extremes

State Highs State Lows

Community

WunderPhotos

Upload Photos

1,891,046 photos uploaded!

WunderBlog® & News

Nearby

Air Quality

  Air Quality AQ Index Pollutant
Not available.

Snow Depth

Station Depth Elevation

Earthquake Activity

City Distance Mag. Time & Date
Minimum magnitude displayed is 2.5.

Coastal Water Temperatures

Place Temperature

Stations

Nearby Weather Stations

Station Location Temp. Windchill Dew Point Humidity Wind Precip. Elev Updated Type
                   

Watches & Warnings

There are currently no watches in effect.